JussilaWX:n lähellä olevien METAR-sääasemien säätiedot

EFOU - Oulu/Uleaborg, Finland
Etäisyys meistä: Pohjoiseen 83km
Päivitetty: Wed, 28.02.2024 13:20
Overcast
Overcast
 Tuulee suunnasta SSW
Tuuli: SSW 17 km/h
Lämpötila: 1°C
Hyytävyys: -3°C
Kastepiste: -3°C
Kosteus: 75%
Paine: 1010 hPa
Pilviä: Overcast
Näkyvyys: 10 km
Pilven tiedot: Overcast 640 m
2024/02/28 12:20 EFOU 281220Z AUTO 20009KT 150V230 9999 OVC021 01/M03 Q1010
EFKI - Kajaani, Finland
Etäisyys meistä: Itään 103km
Päivitetty: Wed, 28.02.2024 13:20
Mostly Cloudy
Mostly Cloudy
 Tuulee suunnasta S
Tuuli: S 19 km/h
Lämpötila: -1°C
Hyytävyys: -7°C
Kastepiste: -3°C
Kosteus: 86%
Paine: 1013 hPa
Pilviä: Mostly Cloudy
Näkyvyys: 10 km
Pilven tiedot: Mostly Cloudy 335 m
2024/02/28 12:20 EFKI 281220Z AUTO 18010KT 9999 BKN011 M01/M03 Q1013
 
EFKK - Kruunupyy, Finland
Etäisyys meistä: Länsilounaaseen 128km
Päivitetty: Wed, 28.02.2024 13:20
Overcast
Overcast
 Tuulee suunnasta S
Tuuli: S 31 km/h
Lämpötila: 0°C
Hyytävyys: -7°C
Kastepiste: -3°C
Kosteus: 80%
Paine: 1011 hPa
Pilviä: Overcast
Näkyvyys: 10 km
Pilven tiedot: Overcast 488 m
2024/02/28 12:20 EFKK 281220Z 18017KT 9999 OVC016 00/M03 Q1011
EFKU - Kuopio (mil/Civ), Finland
Etäisyys meistä: Kaakkoon 170km
Päivitetty: Wed, 28.02.2024 13:20
Light snow, Showers, Overcast
Light snow, Showers, Overcast
 Tuulee suunnasta S
Tuuli: S 17 km/h
Lämpötila: -2°C
Hyytävyys: -7°C
Kastepiste: -3°C
Kosteus: 93%
Paine: 1016 hPa
Olosuhteet: Light snow, Showers
Pilviä: Overcast
Näkyvyys: 10 km
Pilven tiedot: Overcast 152 m
2024/02/28 12:20 EFKU 281220Z AUTO 17009KT 9999 -SHSN OVC005 M02/M03 Q1016
 
EFKE - Kemi, Finland
Etäisyys meistä: Pohjoisluoteeseen 183km
Päivitetty: Wed, 28.02.2024 13:20

 Tuulee suunnasta S
Tuuli: S 31 km/h
Näkyvyys: 2 km
2024/02/28 12:20 EFKE 281220Z AUTO 18017KT 1800 1400 R18/P2000D -SN OVC006 M01/M01 Q1008
EFJY - Jyvaskyla (mil/C, Finland
Etäisyys meistä: Etelään 197km
Päivitetty: Wed, 28.02.2024 13:20
Overcast
Overcast
 Tuulee suunnasta S
Tuuli: S 17 km/h
Lämpötila: -1°C
Hyytävyys: -6°C
Kastepiste: -3°C
Kosteus: 86%
Paine: 1015 hPa
Pilviä: Overcast
Näkyvyys: 10 km
Pilven tiedot: Overcast 213 m
2024/02/28 12:20 EFJY 281220Z AUTO 18009KT 9999 OVC007 M01/M03 Q1015
 
EFSI - Seinajoki-Ilmajo, Finland
Etäisyys meistä: Lounaaseen 212km
Päivitetty: Wed, 28.02.2024 13:20
Overcast
Overcast
 Tuulee suunnasta S
Tuuli: S 22 km/h
Lämpötila: 0°C
Hyytävyys: -6°C
Kastepiste: -4°C
Kosteus: 75%
Paine: 1012 hPa
Pilviä: Overcast
Näkyvyys: 10 km
Pilven tiedot: Overcast 427 m
2024/02/28 12:20 EFSI 281220Z AUTO 18012KT 9999 OVC014 M00/M04 Q1012
ESNS - Skelleftea Airpo, Sweden
Etäisyys meistä: Länsiluoteeseen 221km
Päivitetty: Wed, 28.02.2024 13:20
Mostly Cloudy
Mostly Cloudy
 Tuulee suunnasta S
Tuuli: S 19 km/h
Lämpötila: 1°C
Hyytävyys: -4°C
Kastepiste: 0°C
Kosteus: 93%
Paine: 1006 hPa
Pilviä: Mostly Cloudy
Näkyvyys: 10 km
Pilven tiedot: Mostly Cloudy 396 m
2024/02/28 12:20 ESNS 281220Z 19010KT 9999 BKN013 01/00 Q1006
 
ESPA - Kallax/Lulea (af, Sweden
Etäisyys meistä: Luoteeseen 222km
Päivitetty: Wed, 28.02.2024 13:20
Mostly Cloudy
Mostly Cloudy
 Tuulee suunnasta S
Tuuli: S 22 km/h
Lämpötila: 1°C
Hyytävyys: -4°C
Kastepiste: -1°C
Kosteus: 87%
Paine: 1005 hPa
Pilviä: Mostly Cloudy
Näkyvyys: 10 km
Pilven tiedot: Mostly Cloudy 274 m
Mostly Cloudy 457 m
2024/02/28 12:20 ESPA 281220Z 18012KT 9999 BKN009 BKN015 01/M01 Q1005
EFVA - Vaasa, Finland
Etäisyys meistä: Länsilounaaseen 225km
Päivitetty: Wed, 28.02.2024 13:20
Overcast
Overcast
 Tuulee suunnasta S
Tuuli: S 30 km/h
Lämpötila: 1°C
Hyytävyys: -5°C
Kastepiste: -2°C
Kosteus: 81%
Paine: 1011 hPa
Pilviä: Overcast
Näkyvyys: 10 km
Pilven tiedot: Overcast 457 m
2024/02/28 12:20 EFVA 281220Z AUTO 19016KT 9999 OVC015 01/M02 Q1011
 
EFHA - Halli (fin-Afb), Finland
Etäisyys meistä: Etelään 261km
Päivitetty: Wed, 28.02.2024 13:20
Overcast
Overcast
 Tuulee suunnasta SSW
Tuuli: SSW 15 km/h
Lämpötila: -1°C
Hyytävyys: -6°C
Kastepiste: -2°C
Kosteus: 93%
Paine: 1015 hPa
Pilviä: Overcast
Näkyvyys: 10 km
Pilven tiedot: Overcast 274 m
2024/02/28 12:20 EFHA 281220Z AUTO 20008KT 170V250 9999 OVC009 M01/M02 Q1015
ESNU - Umea Airport, Sweden
Etäisyys meistä: Länteen 261km
Päivitetty: Wed, 28.02.2024 13:20
Light snow, Overcast
Light snow, Overcast
 Tuulee suunnasta S
Tuuli: S 28 km/h
Lämpötila: 0°C
Hyytävyys: -6°C
Kastepiste: -1°C
Kosteus: 93%
Paine: 1007 hPa
Olosuhteet: Light Snow
Pilviä: Overcast
Näkyvyys: 6 km
Pilven tiedot: Overcast 183 m
2024/02/28 12:20 ESNU 281220Z 19015KT 6000 -SN OVC006 00/M01 Q1007
 
EFJO - Joensuu, Finland
Etäisyys meistä: Kaakkoon 263km
Päivitetty: Wed, 28.02.2024 13:20
Overcast
Overcast
 Tuulee suunnasta S
Tuuli: S 17 km/h
Lämpötila: -2°C
Hyytävyys: -7°C
Kastepiste: -3°C
Kosteus: 93%
Paine: 1017 hPa
Pilviä: Overcast
Näkyvyys: 10 km
Pilven tiedot: Overcast 183 m
2024/02/28 12:20 EFJO 281220Z AUTO 19009KT 9999 OVC006 M02/M03 Q1017
EFKS - Kuusamo, Finland
Etäisyys meistä: Koiliseen 267km
Päivitetty: Wed, 28.02.2024 13:20
Mostly Cloudy
Mostly Cloudy
 Tuulee suunnasta SSW
Tuuli: SSW 22 km/h
Lämpötila: -2°C
Hyytävyys: -8°C
Kastepiste: -5°C
Kosteus: 80%
Paine: 1010 hPa
Pilviä: Mostly Cloudy
Näkyvyys: 10 km
Pilven tiedot: Mostly Cloudy 396 m
2024/02/28 12:20 EFKS 281220Z 20012KT 9999 BKN013 M02/M05 Q1010
 
EFRO - Rovaniemi (civ/M, Finland
Etäisyys meistä: Pohjoiseen 267km
Päivitetty: Wed, 28.02.2024 13:20
Light snow, Mostly cloudy
Light snow, Mostly cloudy
 Tuulee suunnasta SSW
Tuuli: SSW 31 km/h
Lämpötila: -1°C
Hyytävyys: -8°C
Kastepiste: -3°C
Kosteus: 86%
Paine: 1006 hPa
Olosuhteet: Light Snow
Pilviä: Mostly Cloudy
Näkyvyys: 10 km
Pilven tiedot: Mostly Cloudy 335 m
2024/02/28 12:20 EFRO 281220Z 20017KT 9999 -SN BKN011 M01/M03 Q1006
EFMI - Mikkeli, Finland
Etäisyys meistä: Eteläkaakkoon 289km
Päivitetty: Wed, 28.02.2024 13:20
Overcast
Overcast
 Tuulee suunnasta SSE
Tuuli: SSE 11 km/h
Lämpötila: -1°C
Hyytävyys: -5°C
Kastepiste: -2°C
Kosteus: 93%
Paine: 1017 hPa
Pilviä: Overcast
Näkyvyys: 10 km
Pilven tiedot: Overcast 91 m
2024/02/28 12:20 EFMI 281220Z AUTO 15006KT 9999 OVC003 M01/M02 Q1017
 
EFSA - Savonlinna (aut), Finland
Etäisyys meistä: Kaakkoon 300km
Päivitetty: Wed, 28.02.2024 13:20
Overcast
Overcast
 Tuulee suunnasta SSW
Tuuli: SSW 13 km/h
Lämpötila: -1°C
Hyytävyys: -6°C
Kastepiste: -1°C
Kosteus: 100%
Paine: 1017 hPa
Pilviä: Overcast
Näkyvyys: 10 km
Pilven tiedot: Overcast 122 m
2024/02/28 12:20 EFSA 281220Z AUTO 20007KT 9999 OVC004 M01/M01 Q1017
ESPE - Vidsel (swe-Afb), Sweden
Etäisyys meistä: Luoteeseen 316km
Päivitetty: Wed, 28.02.2024 13:20
Overcast
Overcast
 Tuulee suunnasta S
Tuuli: S 11 km/h
Lämpötila: 0°C
Hyytävyys: -4°C
Kastepiste: -3°C
Kosteus: 80%
Paine: 1002 hPa
Pilviä: Overcast
Näkyvyys: 10 km
Pilven tiedot: Overcast 579 m
2024/02/28 12:20 ESPE 281220Z AUTO 19006KT 150V230 9999 OVC019/// 00/M03 Q1002
 
EFTP - Tampere/Pirkkala, Finland
Etäisyys meistä: Etelälounaaseen 322km
Päivitetty: Wed, 28.02.2024 13:20
Light snow, Mostly cloudy
Light snow, Mostly cloudy
 Tuulee suunnasta SW
Tuuli: SW 13 km/h
Lämpötila: -1°C
Hyytävyys: -6°C
Kastepiste: -2°C
Kosteus: 93%
Paine: 1015 hPa
Olosuhteet: Light Snow
Pilviä: Mostly Cloudy
Näkyvyys: 9 km
Pilven tiedot: Mostly Cloudy 305 m
2024/02/28 12:20 EFTP 281220Z 22007KT 180V240 9000 3000NE -SN BKN010 M01/M02 Q1015
ESNL - Lycksele, Sweden
Etäisyys meistä: Länteen 331km
Päivitetty: Wed, 28.02.2024 13:20
Overcast
Overcast
 Tuulee suunnasta SSE
Tuuli: SSE 15 km/h
Lämpötila: 2°C
Hyytävyys: -2°C
Kastepiste: -2°C
Kosteus: 75%
Paine: 1003 hPa
Pilviä: Overcast
Näkyvyys: 10 km
Pilven tiedot: Overcast 610 m
2024/02/28 12:20 ESNL 281220Z AUTO 16008KT 130V190 9999 OVC020/// 02/M02 Q1003

Metar display script from Saratoga-Weather.org